createdAt,value
2018-05-03T00:00:24.633Z,3.50
2018-05-03T00:01:25.716Z,3.50
2018-05-03T00:02:25.714Z,3.70
2018-05-03T00:03:25.418Z,3.40
2018-05-03T00:04:26.797Z,3.90
2018-05-03T00:05:25.914Z,4.00
2018-05-03T00:06:25.016Z,3.50
2018-05-03T00:07:25.250Z,3.60
2018-05-03T00:08:25.907Z,3.90
2018-05-03T00:09:27.058Z,4.10
2018-05-03T00:10:45.688Z,3.80
2018-05-03T00:11:45.645Z,4.00
2018-05-03T00:12:46.146Z,4.40
2018-05-03T00:14:06.825Z,3.70
2018-05-03T00:15:27.734Z,4.10
2018-05-03T00:16:28.455Z,3.90
2018-05-03T00:17:28.108Z,3.80
2018-05-03T00:18:48.748Z,4.10
2018-05-03T00:19:49.236Z,3.70
2018-05-03T00:20:48.946Z,3.60
2018-05-03T00:21:48.687Z,3.60
2018-05-03T00:22:49.735Z,3.80
2018-05-03T00:23:49.406Z,3.40
2018-05-03T00:24:49.537Z,3.90
2018-05-03T00:25:49.535Z,3.60
2018-05-03T00:26:49.426Z,3.80
2018-05-03T00:27:48.918Z,3.50
2018-05-03T00:28:48.517Z,3.50
2018-05-03T00:29:49.351Z,3.80
2018-05-03T00:30:49.291Z,4.00
2018-05-03T00:31:49.355Z,3.70
2018-05-03T00:32:49.201Z,3.50
2018-05-03T00:33:49.116Z,3.80
2018-05-03T00:34:48.643Z,3.60
2018-05-03T00:35:49.103Z,3.90
2018-05-03T00:36:48.819Z,4.00
2018-05-03T00:37:48.434Z,4.00
2018-05-03T00:39:10.327Z,3.70
2018-05-03T00:40:31.017Z,3.60
2018-05-03T00:41:30.842Z,3.50
2018-05-03T00:42:31.544Z,4.00
2018-05-03T00:43:31.299Z,4.20
2018-05-03T00:44:30.979Z,3.80
2018-05-03T00:46:33.460Z,3.80
2018-05-03T00:47:34.485Z,3.60
2018-05-03T00:48:34.349Z,3.80
2018-05-03T00:49:34.196Z,3.40
2018-05-03T00:50:33.940Z,3.80
2018-05-03T00:51:34.047Z,3.80
2018-05-03T00:52:33.616Z,3.70
2018-05-03T00:53:34.366Z,3.70
2018-05-03T00:54:34.069Z,3.40
2018-05-03T00:55:33.941Z,3.80
2018-05-03T00:56:33.571Z,3.50
2018-05-03T00:57:34.320Z,3.50
2018-05-03T00:58:34.311Z,3.80
2018-05-03T00:59:34.435Z,3.60
2018-05-03T01:00:34.426Z,3.60
2018-05-03T01:01:34.160Z,3.60
2018-05-03T01:02:33.938Z,3.50
2018-05-03T01:03:33.967Z,3.50
2018-05-03T01:04:33.920Z,3.60
2018-05-03T01:05:33.831Z,3.80
2018-05-03T01:06:33.509Z,4.20
2018-05-03T01:07:34.353Z,3.60
2018-05-03T01:08:34.330Z,3.40
2018-05-03T01:09:54.312Z,3.70
2018-05-03T01:10:55.376Z,4.10
2018-05-03T01:11:55.310Z,3.40
2018-05-03T01:13:16.146Z,4.20
2018-05-03T01:14:15.767Z,3.80
2018-05-03T01:15:16.803Z,4.20
2018-05-03T01:16:16.890Z,4.30
2018-05-03T01:17:17.008Z,3.80
2018-05-03T01:18:16.578Z,4.00
2018-05-03T01:19:16.622Z,4.20
2018-05-03T01:20:16.533Z,3.80
2018-05-03T01:21:16.570Z,4.10
2018-05-03T01:22:17.354Z,3.90
2018-05-03T01:23:15.965Z,3.80
2018-05-03T01:24:16.914Z,4.30
2018-05-03T01:25:16.645Z,4.20
2018-05-03T01:26:37.172Z,3.60
2018-05-03T01:27:58.599Z,4.40
2018-05-03T01:28:58.257Z,4.10
2018-05-03T01:29:58.837Z,4.10
2018-05-03T01:30:58.390Z,4.70
2018-05-03T01:31:59.454Z,4.30
2018-05-03T01:32:59.359Z,4.00
2018-05-03T01:33:59.370Z,4.30
2018-05-03T01:34:59.028Z,4.30
2018-05-03T01:35:58.909Z,4.50
2018-05-03T01:36:58.491Z,4.40
2018-05-03T01:38:39.894Z,4.00
2018-05-03T01:39:39.545Z,4.40
2018-05-03T01:40:40.103Z,4.30
2018-05-03T01:41:40.116Z,3.90
2018-05-03T01:42:40.095Z,4.40
2018-05-03T01:43:39.710Z,4.20
2018-05-03T01:44:40.383Z,4.60
2018-05-03T01:45:39.908Z,4.50
2018-05-03T01:46:40.033Z,4.00
2018-05-03T01:47:39.813Z,4.10
2018-05-03T01:48:40.402Z,4.70
2018-05-03T01:49:40.418Z,4.30
2018-05-03T01:51:00.350Z,4.20
2018-05-03T01:52:00.882Z,4.40
2018-05-03T01:53:00.652Z,4.80
2018-05-03T01:54:01.479Z,4.60
2018-05-03T01:55:01.032Z,4.60
2018-05-03T01:56:00.848Z,5.10
2018-05-03T01:57:00.511Z,4.90
2018-05-03T01:58:01.522Z,4.60
2018-05-03T01:59:01.559Z,4.60
2018-05-03T02:00:01.602Z,4.80
2018-05-03T02:01:01.180Z,4.30
2018-05-03T02:02:01.179Z,4.60
2018-05-03T02:03:01.153Z,4.30
2018-05-03T02:04:00.766Z,4.30
2018-05-03T02:05:00.733Z,4.40
2018-05-03T02:06:01.748Z,4.70
2018-05-03T02:07:00.654Z,4.70
2018-05-03T02:08:00.687Z,4.20
2018-05-03T02:09:00.777Z,4.50
2018-05-03T02:10:00.996Z,4.70
2018-05-03T02:11:01.052Z,4.30
2018-05-03T02:12:01.218Z,4.80
2018-05-03T02:13:01.279Z,4.90
2018-05-03T02:14:00.845Z,5.30
2018-05-03T02:15:00.872Z,4.90
2018-05-03T02:16:00.779Z,4.90
2018-05-03T02:17:00.647Z,5.00
2018-05-03T02:18:01.223Z,5.30
2018-05-03T02:19:00.715Z,5.10
2018-05-03T02:20:21.195Z,5.50
2018-05-03T02:21:21.806Z,5.40
2018-05-03T02:22:21.826Z,4.80
2018-05-03T02:23:21.459Z,6.00
2018-05-03T02:24:21.227Z,5.50
2018-05-03T02:25:22.311Z,5.90
2018-05-03T02:26:22.066Z,5.70
2018-05-03T02:27:22.189Z,5.80
2018-05-03T02:28:22.306Z,6.00
2018-05-03T02:29:22.362Z,6.00
2018-05-03T02:30:21.116Z,5.80
2018-05-03T02:31:22.807Z,6.20
2018-05-03T02:32:21.557Z,6.00
2018-05-03T02:33:21.085Z,6.30
2018-05-03T02:34:43.031Z,6.30
2018-05-03T02:35:44.071Z,6.50
2018-05-03T02:36:43.017Z,6.00
2018-05-03T02:37:43.067Z,6.70
2018-05-03T02:39:03.519Z,6.40
2018-05-03T02:40:04.471Z,6.70
2018-05-03T02:41:04.406Z,6.70
2018-05-03T02:42:04.105Z,6.40
2018-05-03T02:44:04.938Z,6.90
2018-05-03T02:45:06.035Z,7.00
2018-05-03T02:46:06.006Z,6.50
2018-05-03T02:47:05.977Z,6.60
2018-05-03T02:48:06.096Z,6.50
2018-05-03T02:49:05.633Z,6.30
2018-05-03T02:50:05.516Z,6.80
2018-05-03T02:51:05.013Z,6.70
2018-05-03T02:52:06.057Z,6.40
2018-05-03T02:53:05.604Z,7.50
2018-05-03T02:54:05.303Z,7.00
2018-05-03T02:55:46.695Z,6.40
2018-05-03T02:56:47.319Z,6.60
2018-05-03T02:58:08.032Z,6.50
2018-05-03T02:59:09.099Z,6.70
2018-05-03T03:00:09.173Z,19.00
2018-05-03T03:01:29.292Z,23.60
2018-05-03T03:02:30.430Z,14.40
2018-05-03T03:03:29.305Z,8.60
2018-05-03T03:04:29.872Z,7.30
2018-05-03T03:05:29.899Z,39.00
2018-05-03T03:06:29.669Z,11.60
2018-05-03T03:07:30.531Z,16.60
2018-05-03T03:08:30.140Z,12.40
2018-05-03T03:09:29.782Z,8.90
2018-05-03T03:10:29.723Z,8.40
2018-05-03T03:11:29.279Z,7.60
2018-05-03T03:12:29.812Z,8.40
2018-05-03T03:13:29.753Z,7.30
2018-05-03T03:14:29.613Z,7.20
2018-05-03T03:15:29.329Z,7.20
2018-05-03T03:16:30.272Z,7.80
2018-05-03T03:17:29.960Z,7.00
2018-05-03T03:18:29.798Z,7.50
2018-05-03T03:19:29.648Z,7.30
2018-05-03T03:20:29.269Z,7.80
2018-05-03T03:21:29.853Z,7.90
2018-05-03T03:22:29.834Z,7.30
2018-05-03T03:23:29.697Z,6.90
2018-05-03T03:24:29.208Z,7.40
2018-05-03T03:25:50.397Z,7.20
2018-05-03T03:27:32.553Z,7.30
2018-05-03T03:29:14.485Z,6.70
2018-05-03T03:30:15.018Z,7.10
2018-05-03T03:31:14.919Z,7.40
2018-05-03T03:32:15.003Z,7.70
2018-05-03T03:33:14.555Z,7.20
2018-05-03T03:34:15.474Z,7.60
2018-05-03T03:35:15.029Z,7.70
2018-05-03T03:36:14.628Z,7.60
2018-05-03T03:37:14.687Z,7.70
2018-05-03T03:38:14.511Z,8.00
2018-05-03T03:39:34.618Z,8.20
2018-05-03T03:40:35.484Z,8.20
2018-05-03T03:41:56.299Z,8.30
2018-05-03T03:42:56.554Z,8.70
2018-05-03T03:43:56.571Z,8.80
2018-05-03T03:44:56.048Z,9.30
2018-05-03T03:45:56.550Z,9.30
2018-05-03T03:46:56.258Z,9.60
2018-05-03T03:47:57.303Z,10.00
2018-05-03T03:48:56.481Z,9.60
2018-05-03T03:49:56.595Z,10.70
2018-05-03T03:50:57.885Z,10.70
2018-05-03T03:51:56.905Z,10.70
2018-05-03T03:53:24.439Z,10.80
2018-05-03T03:54:24.688Z,10.90
2018-05-03T03:55:25.410Z,11.00
2018-05-03T03:56:24.557Z,11.90
2018-05-03T03:57:24.113Z,11.50
2018-05-03T03:58:26.876Z,11.00
2018-05-03T03:59:27.806Z,12.20
2018-05-03T04:00:26.288Z,12.40
2018-05-03T04:01:25.330Z,11.80
2018-05-03T04:02:27.949Z,12.10
2018-05-03T04:03:25.092Z,12.60
2018-05-03T04:04:31.021Z,12.30
2018-05-03T04:05:28.230Z,13.10
2018-05-03T04:06:28.059Z,13.00
2018-05-03T04:07:23.199Z,13.30
2018-05-03T04:08:22.535Z,12.70
2018-05-03T04:09:22.928Z,13.30
2018-05-03T04:10:29.790Z,13.50
2018-05-03T04:11:21.821Z,12.90
2018-05-03T04:12:22.956Z,12.90
2018-05-03T04:13:21.872Z,13.20
2018-05-03T04:14:22.568Z,13.20
2018-05-03T04:15:23.086Z,13.20
2018-05-03T04:16:23.583Z,12.00
2018-05-03T04:17:22.913Z,13.30
2018-05-03T04:18:22.801Z,13.00
2018-05-03T04:19:22.594Z,12.50
2018-05-03T04:20:22.610Z,14.40
2018-05-03T04:21:22.625Z,14.70
2018-05-03T04:22:43.271Z,14.60
2018-05-03T04:23:43.441Z,15.10
2018-05-03T04:24:43.474Z,15.30
2018-05-03T04:25:43.664Z,14.70
2018-05-03T04:26:43.731Z,14.70
2018-05-03T04:27:44.023Z,14.50
2018-05-03T04:28:44.178Z,14.80
2018-05-03T04:29:43.956Z,14.40
2018-05-03T04:30:44.262Z,13.70
2018-05-03T04:31:43.621Z,15.20
2018-05-03T04:32:43.764Z,14.50
2018-05-03T04:33:44.562Z,14.30
2018-05-03T04:35:04.592Z,14.80
2018-05-03T04:36:05.684Z,14.50
2018-05-03T04:37:05.142Z,13.90
2018-05-03T04:38:05.321Z,13.20
2018-05-03T04:39:25.417Z,12.70
2018-05-03T04:40:27.097Z,13.00
2018-05-03T04:41:26.295Z,12.40
2018-05-03T04:42:25.107Z,12.60
2018-05-03T04:43:25.382Z,12.80
2018-05-03T04:44:25.192Z,13.30
2018-05-03T04:45:47.524Z,11.50
2018-05-03T04:47:27.735Z,13.50
2018-05-03T04:48:28.559Z,12.30
2018-05-03T04:49:28.566Z,12.30
2018-05-03T04:50:28.730Z,11.80
2018-05-03T04:51:28.541Z,12.00
2018-05-03T04:52:28.347Z,11.30
2018-05-03T04:53:49.105Z,10.80
2018-05-03T04:54:50.346Z,10.20
2018-05-03T04:55:49.224Z,10.60
2018-05-03T04:57:10.891Z,10.50
2018-05-03T04:58:11.056Z,10.10
2018-05-03T04:59:33.498Z,9.20
2018-05-03T05:00:33.489Z,8.60
2018-05-03T05:01:34.659Z,8.70
2018-05-03T05:02:33.677Z,8.40
2018-05-03T05:03:54.574Z,8.10
2018-05-03T05:05:15.224Z,7.50
2018-05-03T05:06:57.768Z,7.80
2018-05-03T05:07:57.509Z,7.40
2018-05-03T05:08:58.753Z,8.10
2018-05-03T05:09:57.803Z,7.70
2018-05-03T05:10:57.866Z,7.20
2018-05-03T05:11:57.922Z,8.20
2018-05-03T05:12:58.152Z,7.80
2018-05-03T05:13:58.142Z,7.60
2018-05-03T05:14:57.954Z,7.90
2018-05-03T05:15:57.868Z,7.10
2018-05-03T05:17:18.717Z,7.80
2018-05-03T05:18:19.720Z,7.20
2018-05-03T05:19:18.430Z,8.00
2018-05-03T05:20:19.752Z,7.90
2018-05-03T05:21:19.367Z,8.00
2018-05-03T05:22:19.107Z,7.40
2018-05-03T05:23:39.444Z,8.50
2018-05-03T05:25:21.664Z,7.30
2018-05-03T05:26:21.447Z,7.60
2018-05-03T05:27:23.491Z,8.40
2018-05-03T05:28:22.699Z,7.70
2018-05-03T05:29:21.935Z,7.80
2018-05-03T05:30:21.901Z,7.30
2018-05-03T05:31:22.042Z,8.30
2018-05-03T05:32:22.233Z,7.50
2018-05-03T05:33:22.046Z,7.60
2018-05-03T05:34:21.719Z,7.30
2018-05-03T05:35:22.442Z,7.40
2018-05-03T05:36:22.282Z,7.60
2018-05-03T05:37:22.584Z,7.50
2018-05-03T05:38:43.167Z,7.70
2018-05-03T05:39:43.238Z,7.30
2018-05-03T05:40:43.343Z,6.50
2018-05-03T05:41:46.799Z,6.30
2018-05-03T05:43:33.451Z,6.30
2018-05-03T05:44:34.154Z,6.30
2018-05-03T05:45:34.152Z,5.70
2018-05-03T05:46:34.009Z,5.40
2018-05-03T05:47:34.328Z,5.80
2018-05-03T05:48:34.164Z,6.30
2018-05-03T05:49:56.309Z,5.90
2018-05-03T05:50:57.142Z,6.20
2018-05-03T05:51:56.839Z,5.50
2018-05-03T05:52:56.538Z,5.70
2018-05-03T05:53:56.342Z,5.30
2018-05-03T05:54:57.100Z,5.30
2018-05-03T05:55:57.090Z,5.90
2018-05-03T05:56:56.853Z,5.40
2018-05-03T05:57:56.888Z,5.70
2018-05-03T05:58:56.513Z,5.10
2018-05-03T05:59:57.510Z,5.40
2018-05-03T06:00:56.317Z,5.20
2018-05-03T06:01:57.102Z,5.10
2018-05-03T06:03:38.530Z,6.00
2018-05-03T06:04:38.898Z,5.70
2018-05-03T06:05:39.406Z,5.40
2018-05-03T06:06:39.444Z,5.20
2018-05-03T06:07:39.111Z,5.50
2018-05-03T06:08:59.275Z,5.80
2018-05-03T06:10:00.907Z,5.40
2018-05-03T06:10:59.628Z,5.70
2018-05-03T06:12:00.310Z,5.20
2018-05-03T06:13:00.211Z,5.00
2018-05-03T06:14:00.077Z,4.60
2018-05-03T06:14:59.874Z,4.90
2018-05-03T06:15:59.833Z,5.20
2018-05-03T06:16:59.733Z,4.80
2018-05-03T06:18:00.046Z,4.70
2018-05-03T06:19:00.149Z,4.70
2018-05-03T06:19:59.970Z,4.70
2018-05-03T06:21:20.598Z,4.60
2018-05-03T06:22:21.821Z,5.40
2018-05-03T06:23:21.860Z,4.40
2018-05-03T06:24:20.655Z,4.50
2018-05-03T06:25:22.445Z,4.60
2018-05-03T06:26:42.545Z,4.50
2018-05-03T06:27:42.613Z,4.90
2018-05-03T06:28:42.361Z,5.20
2018-05-03T06:29:43.114Z,5.80
2018-05-03T06:30:43.051Z,5.10
2018-05-03T06:31:43.444Z,4.80
2018-05-03T06:32:42.286Z,5.30
2018-05-03T06:33:43.037Z,4.70
2018-05-03T06:35:03.625Z,4.50
2018-05-03T06:36:03.298Z,3.70
2018-05-03T06:37:03.267Z,4.30
2018-05-03T06:38:24.579Z,4.10
2018-05-03T06:39:25.764Z,4.20
2018-05-03T06:40:24.866Z,3.80
2018-05-03T06:41:24.747Z,3.60
2018-05-03T06:42:25.540Z,3.90
2018-05-03T06:43:25.667Z,3.90
2018-05-03T06:44:25.552Z,4.20
2018-05-03T06:45:46.438Z,3.80
2018-05-03T06:46:47.229Z,4.00
2018-05-03T06:47:47.380Z,3.30
2018-05-03T06:49:34.332Z,4.50
2018-05-03T06:50:33.721Z,4.10
2018-05-03T06:51:33.906Z,3.60
2018-05-03T06:52:34.223Z,4.00
2018-05-03T06:53:56.588Z,3.70
2018-05-03T06:54:55.724Z,4.10
2018-05-03T06:56:16.424Z,3.80
2018-05-03T06:57:17.598Z,3.60
2018-05-03T06:58:16.254Z,3.80
2018-05-03T06:59:16.899Z,3.80
2018-05-03T07:00:17.037Z,3.50
2018-05-03T07:01:16.815Z,4.00
2018-05-03T07:02:37.573Z,3.80
2018-05-03T07:03:37.242Z,3.90
2018-05-03T07:04:38.507Z,3.80
2018-05-03T07:05:37.711Z,4.20
2018-05-03T07:06:37.487Z,4.30
2018-05-03T07:07:37.274Z,3.80
2018-05-03T07:08:38.405Z,4.10
2018-05-03T07:09:38.204Z,4.30
2018-05-03T07:10:38.031Z,4.20
2018-05-03T07:11:37.792Z,3.70
2018-05-03T07:12:37.659Z,4.10
2018-05-03T07:13:38.297Z,3.90
2018-05-03T07:14:59.049Z,3.80
2018-05-03T07:16:00.209Z,3.70
2018-05-03T07:17:00.261Z,3.70
2018-05-03T07:17:59.033Z,3.60
2018-05-03T07:18:59.720Z,3.50
2018-05-03T07:19:59.681Z,3.50
2018-05-03T07:20:59.524Z,3.50
2018-05-03T07:21:59.814Z,3.20
2018-05-03T07:22:59.629Z,3.20
2018-05-03T07:23:59.395Z,3.90
2018-05-03T07:24:59.906Z,3.30
2018-05-03T07:25:59.650Z,3.60
2018-05-03T07:27:20.220Z,3.40
2018-05-03T07:28:41.954Z,3.40
2018-05-03T07:29:41.814Z,3.60
2018-05-03T07:30:41.750Z,3.40
2018-05-03T07:31:41.952Z,3.70
2018-05-03T07:33:02.443Z,3.50
2018-05-03T07:34:03.200Z,3.10
2018-05-03T07:35:03.316Z,3.10
2018-05-03T07:36:03.522Z,3.30
2018-05-03T07:37:03.830Z,3.60
2018-05-03T07:38:03.001Z,3.30
2018-05-03T07:39:03.288Z,3.50
2018-05-03T07:40:03.415Z,3.70
2018-05-03T07:41:24.300Z,3.90
2018-05-03T07:42:47.140Z,3.30
2018-05-03T07:43:46.917Z,3.40
2018-05-03T07:44:47.170Z,3.70
2018-05-03T07:46:07.825Z,3.80
2018-05-03T07:47:07.975Z,3.50
2018-05-03T07:48:07.724Z,3.10
2018-05-03T07:49:08.069Z,3.30
2018-05-03T07:50:29.241Z,3.00
2018-05-03T07:51:29.412Z,3.80
2018-05-03T07:52:29.122Z,3.20
2018-05-03T07:53:29.085Z,3.60
2018-05-03T07:54:29.045Z,3.80
2018-05-03T07:55:51.146Z,3.60
2018-05-03T07:56:51.089Z,3.50
2018-05-03T07:57:51.295Z,3.70
2018-05-03T07:58:51.410Z,4.20
2018-05-03T07:59:51.347Z,3.30
2018-05-03T08:00:51.282Z,3.30
2018-05-03T08:01:51.246Z,4.00
2018-05-03T08:02:50.989Z,3.80
2018-05-03T08:04:11.862Z,4.00
2018-05-03T08:05:12.707Z,3.60
2018-05-03T08:06:32.924Z,3.20
2018-05-03T08:07:34.163Z,3.20
2018-05-03T08:08:33.994Z,3.00
2018-05-03T08:09:34.130Z,3.40
2018-05-03T08:10:33.979Z,3.30
2018-05-03T08:12:16.279Z,3.40
2018-05-03T08:13:16.668Z,3.10
2018-05-03T08:14:15.571Z,2.90
2018-05-03T08:15:16.374Z,2.90
2018-05-03T08:16:36.667Z,2.80
2018-05-03T08:17:37.471Z,2.80
2018-05-03T08:18:37.282Z,2.90
2018-05-03T08:19:37.202Z,3.40
2018-05-03T08:20:37.109Z,2.80
2018-05-03T08:21:37.259Z,3.20
2018-05-03T08:22:37.179Z,3.10
2018-05-03T08:23:57.540Z,3.50
2018-05-03T08:24:58.553Z,3.20
2018-05-03T08:25:58.411Z,3.30
2018-05-03T08:26:58.222Z,3.30
2018-05-03T08:27:58.275Z,3.00
2018-05-03T08:28:58.679Z,3.80
2018-05-03T08:29:58.052Z,3.50
2018-05-03T08:30:57.813Z,3.10
2018-05-03T08:31:58.550Z,3.40
2018-05-03T08:32:58.780Z,3.10
2018-05-03T08:33:58.029Z,2.90
2018-05-03T08:34:57.962Z,2.50
2018-05-03T08:35:58.137Z,4.50
2018-05-03T08:36:57.969Z,4.60
2018-05-03T08:37:57.782Z,4.70
2018-05-03T08:39:18.983Z,2.70
2018-05-03T08:40:19.362Z,2.60
2018-05-03T08:41:19.434Z,3.00
2018-05-03T08:42:19.555Z,3.00
2018-05-03T08:43:19.472Z,2.70
2018-05-03T08:44:19.223Z,2.70
2018-05-03T08:45:19.660Z,2.80
2018-05-03T08:46:19.469Z,2.50
2018-05-03T08:47:40.199Z,2.80
2018-05-03T08:48:40.369Z,2.90
2018-05-03T08:49:40.584Z,2.80
2018-05-03T08:50:41.009Z,2.80
2018-05-03T08:51:40.261Z,2.90
2018-05-03T08:52:40.008Z,2.60
2018-05-03T08:53:40.178Z,2.90
2018-05-03T08:54:40.141Z,3.00
2018-05-03T08:55:39.823Z,2.50
2018-05-03T08:56:41.036Z,2.80
2018-05-03T08:57:39.866Z,2.80
2018-05-03T08:58:40.514Z,2.60
2018-05-03T08:59:40.257Z,3.00
2018-05-03T09:00:40.009Z,2.80
2018-05-03T09:01:40.740Z,3.20
2018-05-03T09:02:40.614Z,2.70
2018-05-03T09:03:40.671Z,2.70
2018-05-03T09:04:40.583Z,2.80
2018-05-03T09:05:40.373Z,2.40
2018-05-03T09:06:40.204Z,2.50
2018-05-03T09:07:40.204Z,2.70
2018-05-03T09:08:40.142Z,2.60
2018-05-03T09:09:40.618Z,2.60
2018-05-03T09:10:40.639Z,2.20
2018-05-03T09:11:40.845Z,2.80
2018-05-03T09:12:40.697Z,2.50
2018-05-03T09:13:40.335Z,2.90
2018-05-03T09:14:40.433Z,2.50
2018-05-03T09:15:40.239Z,2.20
2018-05-03T09:16:39.922Z,2.40
2018-05-03T09:17:40.313Z,2.50
2018-05-03T09:18:40.659Z,2.20
2018-05-03T09:20:00.871Z,2.00
2018-05-03T09:21:01.859Z,2.20
2018-05-03T09:22:02.006Z,2.60
2018-05-03T09:23:02.227Z,3.00
2018-05-03T09:24:01.332Z,2.60
2018-05-03T09:25:01.464Z,2.40
2018-05-03T09:26:01.482Z,2.50
2018-05-03T09:27:01.300Z,2.60
2018-05-03T09:28:01.661Z,2.50
2018-05-03T09:29:01.592Z,2.80
2018-05-03T09:30:01.493Z,2.40
2018-05-03T09:31:01.796Z,2.70
2018-05-03T09:32:02.104Z,2.30
2018-05-03T09:33:02.373Z,2.60
2018-05-03T09:34:01.537Z,2.70
2018-05-03T09:35:01.796Z,2.30
2018-05-03T09:36:01.994Z,2.50
2018-05-03T09:37:01.032Z,2.30
2018-05-03T09:38:01.362Z,2.50
2018-05-03T09:39:01.632Z,2.70
2018-05-03T09:40:01.816Z,2.40
2018-05-03T09:41:01.938Z,2.10
2018-05-03T09:42:02.113Z,2.10
2018-05-03T09:43:00.893Z,2.30
2018-05-03T09:44:01.802Z,2.00
2018-05-03T09:45:02.092Z,2.30
2018-05-03T09:46:00.926Z,2.10
2018-05-03T09:47:02.129Z,2.20
2018-05-03T09:48:01.466Z,2.60
2018-05-03T09:49:01.849Z,2.80
2018-05-03T09:50:02.121Z,2.30
2018-05-03T09:51:01.278Z,2.00
2018-05-03T09:52:01.294Z,2.20
2018-05-03T09:53:01.577Z,2.40
2018-05-03T09:54:01.789Z,2.20
2018-05-03T09:55:01.997Z,2.40
2018-05-03T09:56:00.831Z,2.00
2018-05-03T09:57:23.423Z,2.10
2018-05-03T09:58:23.277Z,2.20
2018-05-03T09:59:23.444Z,2.50
2018-05-03T10:00:23.331Z,2.70
2018-05-03T10:01:23.620Z,2.60
2018-05-03T10:02:22.872Z,2.10
2018-05-03T10:03:23.089Z,2.50
2018-05-03T10:04:23.008Z,2.30
2018-05-03T10:05:23.147Z,2.40
2018-05-03T10:06:23.051Z,2.70
2018-05-03T10:07:43.814Z,2.40
2018-05-03T10:08:43.862Z,2.40
2018-05-03T10:09:43.711Z,2.10
2018-05-03T10:10:43.996Z,2.10
2018-05-03T10:11:43.970Z,2.30
2018-05-03T10:12:44.034Z,2.10
2018-05-03T10:13:43.902Z,2.20
2018-05-03T10:15:26.128Z,2.30
2018-05-03T10:16:26.199Z,2.50
2018-05-03T10:17:26.252Z,2.40
2018-05-03T10:18:26.053Z,2.20
2018-05-03T10:19:25.857Z,2.20
2018-05-03T10:20:27.251Z,2.30
2018-05-03T10:21:26.445Z,2.70
2018-05-03T10:22:26.343Z,2.50
2018-05-03T10:23:26.805Z,2.20
2018-05-03T10:24:26.567Z,2.10
2018-05-03T10:25:47.003Z,2.70
2018-05-03T10:26:48.260Z,2.40
2018-05-03T10:27:47.491Z,2.70
2018-05-03T10:28:47.475Z,2.40
2018-05-03T10:29:47.364Z,2.80
2018-05-03T10:30:47.198Z,2.60
2018-05-03T10:32:07.990Z,2.40
2018-05-03T10:33:08.772Z,2.60
2018-05-03T10:34:09.672Z,2.40
2018-05-03T10:35:09.092Z,2.60
2018-05-03T10:36:08.447Z,2.60
2018-05-03T10:37:08.668Z,2.50
2018-05-03T10:38:08.470Z,2.80
2018-05-03T10:39:29.228Z,2.60
2018-05-03T10:40:29.536Z,2.80
2018-05-03T10:41:29.766Z,2.60
2018-05-03T10:42:29.598Z,2.90
2018-05-03T10:43:29.536Z,2.40
2018-05-03T10:44:29.683Z,2.70
2018-05-03T10:45:29.821Z,2.50
2018-05-03T10:46:29.973Z,2.50
2018-05-03T10:47:29.691Z,2.70
2018-05-03T10:48:29.576Z,3.00
2018-05-03T10:49:29.540Z,2.80
2018-05-03T10:50:29.654Z,2.80
2018-05-03T10:51:29.450Z,2.90
2018-05-03T10:52:50.511Z,2.70
2018-05-03T10:53:51.138Z,3.00
2018-05-03T10:54:51.182Z,2.70
2018-05-03T10:56:54.615Z,2.80
2018-05-03T10:58:14.439Z,2.40
2018-05-03T10:59:15.296Z,2.70
2018-05-03T11:00:15.546Z,2.80
2018-05-03T11:01:15.364Z,3.20
2018-05-03T11:02:16.286Z,2.80
2018-05-03T11:03:15.445Z,2.40
2018-05-03T11:04:15.373Z,2.90
2018-05-03T11:05:15.209Z,2.90
2018-05-03T11:06:14.868Z,2.50
2018-05-03T11:07:14.740Z,2.70
2018-05-03T11:08:14.933Z,3.00
2018-05-03T11:09:15.513Z,2.70
2018-05-03T11:10:15.377Z,2.50
2018-05-03T11:11:15.753Z,2.40
2018-05-03T11:12:15.000Z,2.60
2018-05-03T11:13:15.289Z,2.70
2018-05-03T11:14:36.120Z,2.80
2018-05-03T11:15:37.272Z,2.80
2018-05-03T11:16:36.634Z,2.70
2018-05-03T11:17:36.891Z,2.90
2018-05-03T11:18:37.083Z,3.20
2018-05-03T11:19:37.390Z,2.70
2018-05-03T11:20:36.328Z,2.80
2018-05-03T11:21:57.379Z,3.40
2018-05-03T11:22:57.090Z,3.30
2018-05-03T11:23:57.969Z,3.40
2018-05-03T11:24:58.206Z,2.80
2018-05-03T11:26:39.983Z,3.10
2018-05-03T11:27:39.864Z,2.50
2018-05-03T11:28:39.796Z,2.80
2018-05-03T11:29:40.005Z,3.40
2018-05-03T11:30:40.785Z,2.90
2018-05-03T11:31:41.466Z,2.50
2018-05-03T11:32:39.744Z,2.90
2018-05-03T11:34:00.996Z,3.20
2018-05-03T11:35:21.750Z,2.90
2018-05-03T11:36:22.985Z,2.40
2018-05-03T11:37:22.255Z,2.50
2018-05-03T11:38:43.718Z,2.20
2018-05-03T11:39:43.397Z,2.50
2018-05-03T11:40:44.722Z,2.40
2018-05-03T11:41:43.995Z,2.10
2018-05-03T11:42:44.536Z,2.80
2018-05-03T11:43:44.371Z,2.60
2018-05-03T11:44:44.308Z,2.40
2018-05-03T11:45:44.377Z,2.60
2018-05-03T11:46:44.623Z,2.70
2018-05-03T11:47:44.377Z,3.00
2018-05-03T11:48:45.208Z,2.40
2018-05-03T11:49:43.956Z,2.90
2018-05-03T11:50:43.896Z,2.50
2018-05-03T11:51:44.170Z,2.90
2018-05-03T11:53:08.766Z,2.60
2018-05-03T11:54:05.952Z,2.90
2018-05-03T11:55:06.160Z,2.40
2018-05-03T11:56:05.527Z,2.50
2018-05-03T11:57:06.321Z,2.50
2018-05-03T11:58:05.828Z,2.80
2018-05-03T11:59:06.173Z,2.60
2018-05-03T12:00:05.983Z,2.80
2018-05-03T12:01:06.390Z,3.10
2018-05-03T12:02:05.477Z,3.00
2018-05-03T12:03:05.205Z,2.50
2018-05-03T12:04:05.317Z,2.80
2018-05-03T12:05:05.206Z,2.60
2018-05-03T12:06:05.630Z,2.60
2018-05-03T12:07:05.916Z,2.70
2018-05-03T12:08:05.786Z,2.70
2018-05-03T12:09:28.284Z,2.80
2018-05-03T12:10:28.191Z,2.50
2018-05-03T12:11:28.309Z,2.90
2018-05-03T12:12:28.448Z,2.70
2018-05-03T12:13:34.180Z,2.70
2018-05-03T12:14:28.536Z,2.90
2018-05-03T12:16:10.883Z,2.90
2018-05-03T12:17:12.073Z,2.60
2018-05-03T12:18:32.210Z,2.70
2018-05-03T12:19:53.781Z,2.90
2018-05-03T12:20:54.380Z,3.00
2018-05-03T12:21:55.469Z,3.10
2018-05-03T12:23:57.239Z,8.70
2018-05-03T12:24:57.220Z,4.60
2018-05-03T12:25:57.583Z,4.20
2018-05-03T12:26:57.690Z,6.70
2018-05-03T12:27:58.429Z,7.50
2018-05-03T12:28:57.973Z,4.20
2018-05-03T12:29:57.074Z,3.60
2018-05-03T12:30:57.241Z,5.60
2018-05-03T12:32:18.978Z,3.00
2018-05-03T12:33:18.115Z,3.40
2018-05-03T12:34:18.418Z,4.00
2018-05-03T12:35:18.464Z,2.90
2018-05-03T12:36:18.705Z,3.40
2018-05-03T12:37:19.141Z,3.80
2018-05-03T12:38:18.631Z,2.90
2018-05-03T12:39:40.608Z,3.20
2018-05-03T12:40:40.777Z,3.10
2018-05-03T12:41:40.153Z,3.20
2018-05-03T12:42:40.345Z,2.70
2018-05-03T12:43:40.758Z,2.70
2018-05-03T12:45:01.725Z,3.60
2018-05-03T12:46:02.128Z,2.90
2018-05-03T12:47:22.878Z,2.90
2018-05-03T12:48:24.244Z,2.80
2018-05-03T12:49:22.967Z,2.90
2018-05-03T12:50:44.015Z,2.80
2018-05-03T12:51:44.385Z,2.50
2018-05-03T12:52:44.638Z,2.80
2018-05-03T12:54:08.138Z,2.90
2018-05-03T12:55:26.744Z,2.60
2018-05-03T12:56:47.789Z,3.00
2018-05-03T12:58:29.980Z,3.60
2018-05-03T12:59:30.677Z,9.20
2018-05-03T13:00:29.715Z,2.60
2018-05-03T13:01:31.432Z,2.80
2018-05-03T13:02:30.658Z,4.50
2018-05-03T13:03:29.989Z,3.30
2018-05-03T13:04:30.197Z,3.30
2018-05-03T13:05:30.160Z,2.70
2018-05-03T13:06:30.136Z,2.90
2018-05-03T13:07:30.167Z,3.00
2018-05-03T13:08:51.887Z,2.70
2018-05-03T13:09:52.493Z,3.20
2018-05-03T13:10:51.667Z,2.90
2018-05-03T13:11:51.643Z,2.80
2018-05-03T13:12:51.847Z,2.80
2018-05-03T13:13:51.748Z,2.50
2018-05-03T13:14:51.979Z,2.40
2018-05-03T13:15:51.819Z,2.60
2018-05-03T13:16:51.852Z,2.90
2018-05-03T13:17:51.632Z,2.80
2018-05-03T13:19:12.429Z,2.50
2018-05-03T13:20:12.837Z,2.80
2018-05-03T13:21:12.871Z,2.90
2018-05-03T13:22:13.311Z,2.70
2018-05-03T13:23:12.260Z,2.30
2018-05-03T13:24:12.417Z,2.80
2018-05-03T13:25:12.550Z,2.70
2018-05-03T13:26:12.570Z,3.00
2018-05-03T13:27:33.571Z,2.50
2018-05-03T13:28:34.898Z,2.70
2018-05-03T13:29:56.415Z,2.50
2018-05-03T13:31:17.647Z,2.80
2018-05-03T13:32:18.348Z,2.60
2018-05-03T13:33:39.711Z,2.40
2018-05-03T13:34:41.126Z,2.90
2018-05-03T13:35:40.532Z,2.70
2018-05-03T13:36:41.011Z,2.60
2018-05-03T13:38:01.724Z,2.50
2018-05-03T13:39:02.456Z,2.70
2018-05-03T13:40:01.747Z,2.90
2018-05-03T13:41:02.243Z,2.90
2018-05-03T13:42:01.500Z,3.00
2018-05-03T13:43:01.497Z,2.80
2018-05-03T13:44:01.339Z,2.60
2018-05-03T13:45:01.321Z,2.90
2018-05-03T13:46:01.155Z,2.80
2018-05-03T13:47:01.292Z,2.70
2018-05-03T13:48:01.251Z,3.00
2018-05-03T13:49:01.770Z,2.70
2018-05-03T13:50:01.829Z,2.50
2018-05-03T13:51:02.795Z,2.60
2018-05-03T13:52:02.342Z,2.70
2018-05-03T13:53:01.297Z,2.60
2018-05-03T13:54:01.199Z,2.50
2018-05-03T13:55:44.959Z,2.30
2018-05-03T13:56:44.112Z,2.50
2018-05-03T13:57:44.311Z,2.80
2018-05-03T13:58:44.865Z,2.50
2018-05-03T14:00:04.557Z,2.50
2018-05-03T14:01:06.468Z,2.70
2018-05-03T14:02:06.049Z,2.70
2018-05-03T14:03:06.397Z,2.20
2018-05-03T14:04:05.685Z,2.40